Time;durP1;ratioP1;P1;durP2;ratioP2;P2;SDS_P1;SDS_P2;PMS_P1;PMS_P2;Temp;Humidity;BMP_temperature;BMP_pressure;BME280_temperature;BME280_humidity;BME280_pressure;Samples;Min_cycle;Max_cycle;Signal;HPM_P1;HPM_P2
2022/06/24 00:01:57;;;;;;;4.70;3.05;;;20.60;99.90;;;;;;6222475;23;20020;-84
2022/06/24 00:04:28;;;;;;;7.55;3.38;;;20.60;99.90;;;;;;6247196;23;20016;-84
2022/06/24 00:06:56;;;;;;;8.45;3.15;;;20.40;99.90;;;;;;6220436;23;20119;-84
2022/06/24 00:09:29;;;;;;;5.45;3.00;;;20.40;99.90;;;;;;6220409;23;20016;-85
2022/06/24 00:12:06;;;;;;;6.32;3.97;;;20.30;99.90;;;;;;6246733;23;20494;-84
2022/06/24 00:14:33;;;;;;;5.70;3.63;;;20.30;99.90;;;;;;6246919;23;20020;-84
2022/06/24 00:17:05;;;;;;;6.10;3.70;;;20.30;99.90;;;;;;6247048;23;20055;-84
2022/06/24 00:19:33;;;;;;;5.68;3.60;;;20.20;99.90;;;;;;6220584;23;20052;-85
2022/06/24 00:22:12;;;;;;;8.75;3.83;;;20.10;99.90;;;;;;6220360;23;20016;-84
2022/06/24 00:24:39;;;;;;;4.53;3.63;;;20.10;99.90;;;;;;6246982;23;20019;-84
2022/06/24 00:27:22;;;;;;;8.93;3.92;;;20.00;99.90;;;;;;6219954;23;20456;-84
2022/06/24 00:29:54;;;;;;;4.85;3.72;;;19.90;99.90;;;;;;6195064;23;20015;-84
2022/06/24 00:32:31;;;;;;;5.60;3.50;;;19.80;99.90;;;;;;6219363;23;20020;-84
2022/06/24 00:35:07;;;;;;;5.93;3.88;;;19.70;99.90;;;;;;6219930;23;20446;-85
2022/06/24 00:37:34;;;;;;;6.20;3.10;;;19.60;99.90;;;;;;6195242;23;20039;-85
2022/06/24 00:40:20;;;;;;;7.18;3.50;;;19.50;99.90;;;;;;6220263;23;20020;-84
2022/06/24 00:42:47;;;;;;;5.32;3.17;;;19.50;99.90;;;;;;6194050;23;20031;-85
2022/06/24 00:45:38;;;;;;;4.25;3.13;;;19.50;99.90;;;;;;6246651;23;20017;-85
2022/06/24 00:48:13;;;;;;;5.90;3.47;;;19.50;99.90;;;;;;6219553;23;20020;-84
2022/06/24 00:50:44;;;;;;;5.10;3.15;;;19.40;99.90;;;;;;6219978;23;20082;-84
2022/06/24 00:53:09;;;;;;;4.70;3.30;;;19.30;99.90;;;;;;6220006;23;20016;-84
2022/06/24 00:55:37;;;;;;;6.82;2.90;;;19.30;99.90;;;;;;6219693;23;20043;-84
2022/06/24 00:58:04;;;;;;;6.15;3.33;;;19.20;99.90;;;;;;6219791;23;20012;-85
2022/06/24 01:00:32;;;;;;;7.43;3.00;;;19.10;99.90;;;;;;6219941;23;20020;-85
2022/06/24 01:03:05;;;;;;;6.15;3.10;;;19.10;99.90;;;;;;6246177;23;20478;-84
2022/06/24 01:05:32;;;;;;;3.65;2.85;;;19.10;99.90;;;;;;6246875;23;20016;-84
2022/06/24 01:08:06;;;;;;;4.03;2.70;;;19.10;99.90;;;;;;6194241;23;20027;-84
2022/06/24 01:10:32;;;;;;;4.00;2.85;;;19.10;99.90;;;;;;6193729;23;20091;-84
2022/06/24 01:12:58;;;;;;;2.90;2.53;;;19.00;99.90;;;;;;6246544;23;20027;-84
2022/06/24 01:15:24;;;;;;;6.88;2.80;;;19.00;99.90;;;;;;6246542;23;20012;-84
2022/06/24 01:17:50;;;;;;;3.88;2.70;;;19.00;99.90;;;;;;6219708;23;20070;-84
2022/06/24 01:20:16;;;;;;;4.18;2.80;;;19.00;99.90;;;;;;6219250;23;20027;-84
2022/06/24 01:22:42;;;;;;;4.80;2.97;;;19.00;99.90;;;;;;6194605;23;20012;-84
2022/06/24 01:25:09;;;;;;;4.13;2.65;;;19.00;99.90;;;;;;6219585;23;20020;-85
2022/06/24 01:27:35;;;;;;;3.15;2.50;;;18.90;99.90;;;;;;6219630;23;20017;-84
2022/06/24 01:30:01;;;;;;;6.03;3.03;;;19.00;99.90;;;;;;6246522;23;20078;-85
2022/06/24 01:32:27;;;;;;;4.22;2.40;;;19.00;99.90;;;;;;6219860;23;20052;-85
2022/06/24 01:34:52;;;;;;;3.95;2.88;;;19.00;99.90;;;;;;6218914;23;20095;-85
2022/06/24 01:37:18;;;;;;;4.07;2.80;;;19.00;99.90;;;;;;6194086;23;20016;-85
2022/06/24 01:39:44;;;;;;;3.60;2.72;;;18.90;99.90;;;;;;6219597;23;20024;-85
2022/06/24 01:42:10;;;;;;;5.68;2.85;;;18.80;99.90;;;;;;6219639;23;20091;-85
2022/06/24 01:44:36;;;;;;;5.72;2.85;;;18.80;99.90;;;;;;6219001;23;20024;-84
2022/06/24 01:47:02;;;;;;;4.13;2.90;;;18.90;99.90;;;;;;6246141;23;20039;-84
2022/06/24 01:49:28;;;;;;;4.22;2.95;;;18.80;99.90;;;;;;6219851;23;20396;-84
2022/06/24 01:51:56;;;;;;;5.55;3.25;;;18.90;99.90;;;;;;6246342;23;20107;-85
2022/06/24 01:54:21;;;;;;;7.22;3.33;;;18.90;99.90;;;;;;6246084;23;20013;-84
2022/06/24 01:56:47;;;;;;;3.97;3.28;;;18.90;99.90;;;;;;6245999;23;20023;-84
2022/06/24 01:59:14;;;;;;;5.25;3.42;;;18.90;99.90;;;;;;6246238;23;20121;-84
2022/06/24 02:01:40;;;;;;;8.23;3.45;;;19.00;99.90;;;;;;6246189;23;20016;-85
2022/06/24 02:04:07;;;;;;;3.22;2.72;;;19.00;99.90;;;;;;6246209;23;20030;-84
2022/06/24 02:06:32;;;;;;;4.18;3.25;;;19.10;99.90;;;;;;6218435;23;20022;-84
2022/06/24 02:08:58;;;;;;;5.03;2.85;;;19.10;99.90;;;;;;6246283;23;20095;-84
2022/06/24 02:14:09;;;;;;;3.05;2.80;;;19.20;99.90;;;;;;6219242;23;20439;-84
2022/06/24 02:16:36;;;;;;;4.65;3.30;;;19.20;99.90;;;;;;6245983;23;20112;-84
2022/06/24 02:19:06;;;;;;;3.30;2.70;;;19.20;99.90;;;;;;6219844;23;20016;-85
2022/06/24 02:21:31;;;;;;;3.40;2.70;;;19.20;99.90;;;;;;6219382;23;20032;-84
2022/06/24 02:23:57;;;;;;;6.28;3.05;;;19.20;99.90;;;;;;6245923;23;20012;-84
2022/06/24 02:26:25;;;;;;;6.57;2.78;;;19.20;99.90;;;;;;6247727;23;20016;-84
2022/06/24 02:28:53;;;;;;;6.20;2.55;;;19.20;99.90;;;;;;6248411;23;20016;-84
2022/06/24 02:31:19;;;;;;;4.18;2.78;;;19.20;99.90;;;;;;6221346;23;20027;-84
2022/06/24 02:33:46;;;;;;;3.67;2.67;;;19.20;99.90;;;;;;6248246;23;20020;-84
2022/06/24 02:36:12;;;;;;;4.43;2.85;;;19.20;99.90;;;;;;6196354;23;20012;-84
2022/06/24 02:38:38;;;;;;;3.95;2.80;;;19.30;99.90;;;;;;6221078;23;20016;-85
2022/06/24 02:41:04;;;;;;;4.30;2.88;;;19.30;99.90;;;;;;6248007;23;20022;-84
2022/06/24 02:43:32;;;;;;;4.05;2.78;;;19.30;99.90;;;;;;6248400;23;20055;-85
2022/06/24 02:46:09;;;;;;;3.08;2.60;;;19.30;99.90;;;;;;6220652;23;20020;-83
2022/06/24 02:48:36;;;;;;;3.05;2.67;;;19.30;99.90;;;;;;6248169;23;20016;-84
2022/06/24 02:51:04;;;;;;;7.32;2.60;;;19.40;99.90;;;;;;6221186;23;20027;-85
2022/06/24 02:53:31;;;;;;;6.15;2.83;;;19.40;99.90;;;;;;6248320;23;20399;-84
2022/06/24 02:55:59;;;;;;;4.43;2.83;;;19.50;99.90;;;;;;6247824;23;20008;-84
2022/06/24 02:58:25;;;;;;;4.57;3.05;;;19.50;99.90;;;;;;6221040;23;20095;-84
2022/06/24 03:00:51;;;;;;;7.05;2.80;;;19.60;99.90;;;;;;6220485;23;20023;-84
2022/06/24 03:03:19;;;;;;;3.20;2.90;;;19.60;99.90;;;;;;6215513;23;20020;-84
2022/06/24 03:05:46;;;;;;;3.92;2.75;;;19.60;99.90;;;;;;6215806;23;20043;-84
2022/06/24 03:08:13;;;;;;;5.13;2.90;;;19.70;99.90;;;;;;6215397;23;20399;-84
2022/06/24 03:10:39;;;;;;;4.25;2.55;;;19.70;99.90;;;;;;6215963;23;20324;-84
2022/06/24 03:13:05;;;;;;;4.55;2.78;;;19.80;99.90;;;;;;6217421;23;20068;-84
2022/06/24 03:15:31;;;;;;;5.90;2.78;;;19.80;99.90;;;;;;6217333;23;20507;-84
2022/06/24 03:17:57;;;;;;;3.10;2.47;;;19.80;99.90;;;;;;6215527;23;20016;-84
2022/06/24 03:20:22;;;;;;;4.68;2.60;;;19.80;99.90;;;;;;6216073;23;20044;-84
2022/06/24 03:22:48;;;;;;;5.00;2.50;;;19.70;99.90;;;;;;6217236;23;20021;-84
2022/06/24 03:25:14;;;;;;;4.40;2.55;;;19.70;99.90;;;;;;6215872;23;20013;-84
2022/06/24 03:27:40;;;;;;;5.50;2.75;;;19.70;99.90;;;;;;6217307;23;20340;-84
2022/06/24 03:30:08;;;;;;;2.60;2.40;;;19.70;99.90;;;;;;6217190;23;20017;-85
2022/06/24 03:32:34;;;;;;;5.18;3.20;;;19.90;99.90;;;;;;6189973;23;20151;-84
2022/06/24 03:35:00;;;;;;;4.53;2.58;;;19.90;99.90;;;;;;6215567;23;20012;-84
2022/06/24 03:37:26;;;;;;;5.72;3.25;;;19.90;99.90;;;;;;6216390;23;20071;-84
2022/06/24 03:39:51;;;;;;;7.18;4.35;;;19.90;99.90;;;;;;6190840;23;20016;-84
2022/06/24 03:42:17;;;;;;;6.18;4.65;;;19.80;99.90;;;;;;6215697;23;20515;-84
2022/06/24 03:44:43;;;;;;;11.98;4.50;;;19.50;99.90;;;;;;6215921;23;20095;-84
2022/06/24 03:47:09;;;;;;;8.27;5.22;;;19.40;99.90;;;;;;6217016;23;20038;-84
2022/06/24 03:49:35;;;;;;;10.32;4.82;;;19.30;99.90;;;;;;6216785;23;20091;-84
2022/06/24 03:52:00;;;;;;;7.45;5.47;;;19.20;99.90;;;;;;6217006;23;20017;-84
2022/06/24 03:54:26;;;;;;;9.43;5.93;;;19.10;99.90;;;;;;6215371;23;20013;-83
2022/06/24 03:56:52;;;;;;;12.00;6.80;;;19.00;99.90;;;;;;6215129;23;20017;-84
2022/06/24 03:59:17;;;;;;;10.18;7.65;;;19.00;99.90;;;;;;6215429;23;20448;-84
2022/06/24 04:01:43;;;;;;;12.27;9.27;;;19.00;99.90;;;;;;6217304;23;20436;-83
2022/06/24 04:04:09;;;;;;;13.65;9.93;;;19.00;99.90;;;;;;6220756;23;20024;-84
2022/06/24 04:06:35;;;;;;;20.33;14.55;;;19.20;99.90;;;;;;6247201;23;20490;-83
2022/06/24 04:09:00;;;;;;;18.25;13.95;;;19.30;99.90;;;;;;6247040;23;20463;-86
2022/06/24 04:11:26;;;;;;;20.60;15.07;;;19.50;99.90;;;;;;6247400;23;20031;-85
2022/06/24 04:13:52;;;;;;;15.82;13.60;;;19.70;99.90;;;;;;6247174;23;20027;-85
2022/06/24 04:16:18;;;;;;;18.40;13.70;;;20.10;99.90;;;;;;6246972;23;20012;-83
2022/06/24 04:18:44;;;;;;;12.77;8.93;;;20.20;99.90;;;;;;6220605;23;20098;-84
2022/06/24 04:21:11;;;;;;;10.63;7.15;;;20.40;99.90;;;;;;6247075;23;20016;-82
2022/06/24 04:23:37;;;;;;;8.57;6.25;;;20.50;99.90;;;;;;6246947;23;20022;-84
2022/06/24 04:26:03;;;;;;;10.25;6.30;;;20.60;99.90;;;;;;6246711;23;20048;-85
2022/06/24 04:28:29;;;;;;;7.15;5.10;;;20.70;99.90;;;;;;6247215;23;20024;-84
2022/06/24 04:30:54;;;;;;;7.65;5.43;;;20.70;99.90;;;;;;6220266;23;20023;-85
2022/06/24 04:33:20;;;;;;;7.80;5.18;;;20.70;99.90;;;;;;6246595;23;20016;-86
2022/06/24 04:35:46;;;;;;;8.05;3.95;;;20.70;99.90;;;;;;6220037;23;20149;-83
2022/06/24 04:38:11;;;;;;;8.45;4.22;;;20.80;99.90;;;;;;6219514;23;20142;-85
2022/06/24 04:40:37;;;;;;;6.55;3.50;;;20.80;99.90;;;;;;6220280;23;20066;-85
2022/06/24 04:43:02;;;;;;;5.50;3.85;;;20.80;99.90;;;;;;6246907;23;20012;-85
2022/06/24 04:45:28;;;;;;;6.95;3.70;;;20.70;99.90;;;;;;6220129;23;20018;-85
2022/06/24 04:47:54;;;;;;;5.97;3.75;;;20.70;99.90;;;;;;6194531;23;20027;-83
2022/06/24 04:50:19;;;;;;;5.60;3.78;;;20.70;99.90;;;;;;6246807;23;20065;-83
2022/06/24 04:52:45;;;;;;;5.97;3.92;;;20.70;99.90;;;;;;6246868;23;20095;-84
2022/06/24 04:55:10;;;;;;;6.82;4.85;;;20.60;99.90;;;;;;6246558;23;20016;-83
2022/06/24 04:57:36;;;;;;;6.85;4.55;;;20.60;99.90;;;;;;6246787;23;20055;-84
2022/06/24 05:00:04;;;;;;;8.70;4.45;;;20.60;99.90;;;;;;6220385;23;20030;-84
2022/06/24 05:02:29;;;;;;;6.53;4.57;;;20.50;99.90;;;;;;6220215;23;20026;-84
2022/06/24 05:04:55;;;;;;;5.90;4.35;;;20.40;99.90;;;;;;6246647;23;20020;-84
2022/06/24 05:07:20;;;;;;;6.05;4.63;;;20.50;99.90;;;;;;6219786;23;20027;-84
2022/06/24 05:09:46;;;;;;;7.38;4.00;;;20.40;99.90;;;;;;6219899;23;20351;-86
2022/06/24 05:12:12;;;;;;;8.18;4.88;;;20.40;99.90;;;;;;6219908;23;20052;-84
2022/06/24 05:14:38;;;;;;;8.75;5.22;;;20.40;99.90;;;;;;6219335;23;20406;-82
2022/06/24 05:17:04;;;;;;;7.82;4.80;;;20.30;99.90;;;;;;6219441;23;20020;-83
2022/06/24 05:19:29;;;;;;;10.43;5.40;;;20.30;99.90;;;;;;6246576;23;20016;-84
2022/06/24 05:21:55;;;;;;;11.00;4.90;;;20.30;99.90;;;;;;6219839;23;20499;-84
2022/06/24 05:24:22;;;;;;;7.95;5.65;;;20.30;99.90;;;;;;6219664;23;20066;-84
2022/06/24 05:26:50;;;;;;;7.53;4.90;;;20.30;99.90;;;;;;6219450;23;20020;-86
2022/06/24 05:29:16;;;;;;;7.47;5.32;;;20.30;99.90;;;;;;6219132;23;20023;-84
2022/06/24 05:31:44;;;;;;;7.45;5.43;;;20.30;99.90;;;;;;6246091;23;20083;-85
2022/06/24 05:34:10;;;;;;;6.80;5.40;;;20.30;99.90;;;;;;6219556;23;20340;-83
2022/06/24 05:36:37;;;;;;;8.07;5.47;;;20.30;99.90;;;;;;6246321;23;20019;-83
2022/06/24 05:39:06;;;;;;;12.57;6.38;;;20.30;99.90;;;;;;6219593;23;20016;-86
2022/06/24 05:41:34;;;;;;;9.40;5.90;;;20.30;99.90;;;;;;6219664;23;20020;-84
2022/06/24 05:44:02;;;;;;;7.43;5.60;;;20.30;99.90;;;;;;6246676;23;20439;-85
2022/06/24 05:46:28;;;;;;;7.97;5.30;;;20.20;99.90;;;;;;6246217;23;20022;-84
2022/06/24 05:48:55;;;;;;;8.25;5.93;;;20.10;99.90;;;;;;6246171;23;20087;-85
2022/06/24 05:51:20;;;;;;;8.93;6.25;;;20.10;99.90;;;;;;6246318;23;20024;-85
2022/06/24 05:56:31;;;;;;;10.15;6.68;;;20.20;99.90;;;;;;6219462;23;20348;-84
2022/06/24 05:58:59;;;;;;;12.15;7.13;;;20.20;99.90;;;;;;6246356;23;20018;-85
2022/06/24 06:01:26;;;;;;;8.45;6.70;;;20.20;99.90;;;;;;6245787;23;20095;-84
2022/06/24 06:03:51;;;;;;;9.40;7.00;;;20.20;99.90;;;;;;6219316;23;20016;-85
2022/06/24 06:06:17;;;;;;;7.32;5.63;;;20.30;99.90;;;;;;6194227;23;20019;-85
2022/06/24 06:08:43;;;;;;;10.93;6.65;;;20.40;99.90;;;;;;6218771;23;20024;-84
2022/06/24 06:11:12;;;;;;;8.98;6.25;;;20.50;99.90;;;;;;6246141;23;20027;-85
2022/06/24 06:13:40;;;;;;;9.90;6.35;;;20.50;99.90;;;;;;6219309;23;20340;-84
2022/06/24 06:16:06;;;;;;;9.65;6.70;;;20.60;99.90;;;;;;6245931;23;20016;-84
2022/06/24 06:18:31;;;;;;;12.15;7.00;;;20.60;99.90;;;;;;6246132;23;20016;-84
2022/06/24 06:21:05;;;;;;;10.18;7.60;;;20.60;99.90;;;;;;6246527;23;20433;-84
2022/06/24 06:23:35;;;;;;;10.77;8.35;;;20.40;99.90;;;;;;6246129;23;20051;-84
2022/06/24 06:26:04;;;;;;;10.88;7.47;;;20.40;99.90;;;;;;6246501;23;20020;-82
2022/06/24 06:28:31;;;;;;;7.25;6.35;;;20.30;99.90;;;;;;6245636;23;20095;-83
2022/06/24 06:30:58;;;;;;;11.02;7.32;;;20.30;99.90;;;;;;6245959;23;20020;-83
2022/06/24 06:33:24;;;;;;;9.70;7.47;;;20.20;99.90;;;;;;6219700;23;20020;-83
2022/06/24 06:35:50;;;;;;;8.50;7.50;;;20.20;99.90;;;;;;6245815;23;20090;-83
2022/06/24 06:38:15;;;;;;;9.50;7.28;;;20.20;99.90;;;;;;6246150;23;20074;-82
2022/06/24 06:40:42;;;;;;;11.35;7.72;;;20.20;99.90;;;;;;6218716;23;20313;-82
2022/06/24 06:43:09;;;;;;;9.32;7.03;;;20.20;99.90;;;;;;6246355;23;20062;-82
2022/06/24 06:45:36;;;;;;;8.80;7.00;;;20.20;99.90;;;;;;6246080;23;20103;-82
2022/06/24 06:48:02;;;;;;;11.30;7.28;;;20.10;99.90;;;;;;6245992;23;20022;-82
2022/06/24 06:50:28;;;;;;;10.30;7.53;;;20.10;99.90;;;;;;6219526;23;20016;-87
2022/06/24 06:52:54;;;;;;;8.68;5.65;;;20.00;99.90;;;;;;6246282;23;20050;-84
2022/06/24 06:55:20;;;;;;;8.48;5.93;;;20.00;99.90;;;;;;6218783;23;20089;-83
2022/06/24 06:57:46;;;;;;;10.88;7.18;;;20.00;99.90;;;;;;6220431;23;20020;-83
2022/06/24 07:00:12;;;;;;;8.32;6.88;;;20.00;99.90;;;;;;6219627;23;20024;-83
2022/06/24 07:02:38;;;;;;;8.98;6.25;;;20.00;99.90;;;;;;6246150;23;20335;-83
2022/06/24 07:05:05;;;;;;;8.82;5.82;;;20.00;99.90;;;;;;6245751;23;20038;-83
2022/06/24 07:07:30;;;;;;;5.70;5.10;;;19.90;99.90;;;;;;6245774;23;20095;-83
2022/06/24 07:09:59;;;;;;;5.07;4.05;;;19.90;99.90;;;;;;6246056;23;20387;-83
2022/06/24 07:12:26;;;;;;;7.15;5.22;;;19.70;99.90;;;;;;6247481;23;20031;-83
2022/06/24 07:14:52;;;;;;;11.05;5.82;;;19.80;99.90;;;;;;6220887;23;20016;-83
2022/06/24 07:17:18;;;;;;;7.43;5.88;;;19.80;99.90;;;;;;6247696;23;20016;-82
2022/06/24 07:19:44;;;;;;;13.00;7.63;;;19.80;99.90;;;;;;6221116;23;20091;-82
2022/06/24 07:22:10;;;;;;;11.65;8.48;;;19.70;99.90;;;;;;6221357;23;20390;-83
2022/06/24 07:24:36;;;;;;;12.55;8.77;;;19.70;99.90;;;;;;6248583;23;20050;-82
2022/06/24 07:27:05;;;;;;;12.73;8.00;;;19.60;99.90;;;;;;6247775;23;20023;-84
2022/06/24 07:29:34;;;;;;;10.73;8.38;;;19.60;99.90;;;;;;6247948;23;20028;-83
2022/06/24 07:32:05;;;;;;;15.55;9.90;;;19.40;99.90;;;;;;6221544;23;20020;-84
2022/06/24 07:34:31;;;;;;;10.32;7.25;;;19.40;99.90;;;;;;6221932;23;20317;-84
2022/06/24 07:36:57;;;;;;;7.97;6.97;;;19.40;99.90;;;;;;6221075;23;20339;-84
2022/06/24 07:39:23;;;;;;;13.30;9.10;;;19.30;99.90;;;;;;6247684;23;20016;-84
2022/06/24 07:41:50;;;;;;;24.85;12.10;;;19.40;99.90;;;;;;6248117;23;20111;-84
2022/06/24 07:44:16;;;;;;;29.88;11.20;;;19.30;99.90;;;;;;6221045;23;20016;-84
2022/06/24 07:46:42;;;;;;;19.20;11.55;;;19.40;99.90;;;;;;6247797;23;20054;-84
2022/06/24 07:49:07;;;;;;;17.83;11.98;;;19.50;99.90;;;;;;6248144;23;20012;-83
2022/06/24 07:51:33;;;;;;;24.58;13.45;;;19.40;99.90;;;;;;6222036;23;20027;-83
2022/06/24 07:53:59;;;;;;;28.27;17.33;;;19.40;99.90;;;;;;6198117;23;20016;-83
2022/06/24 07:59:08;;;;;;;26.27;14.77;;;19.50;99.90;;;;;;6223248;23;20128;-83
2022/06/24 08:01:34;;;;;;;17.52;10.52;;;19.40;99.90;;;;;;6222778;23;20344;-83
2022/06/24 08:04:00;;;;;;;16.00;10.57;;;19.50;99.90;;;;;;6221499;23;20024;-83
2022/06/24 08:06:26;;;;;;;19.25;14.57;;;19.40;99.90;;;;;;6248547;23;20442;-83
2022/06/24 08:08:52;;;;;;;17.02;8.80;;;19.40;99.90;;;;;;6249705;23;20020;-83
2022/06/24 08:11:18;;;;;;;14.50;10.23;;;19.40;99.90;;;;;;6200970;23;20024;-83
2022/06/24 08:13:44;;;;;;;27.33;11.63;;;19.30;99.90;;;;;;6250307;23;20042;-82
2022/06/24 08:16:09;;;;;;;28.52;14.02;;;19.30;99.90;;;;;;6220096;23;20379;-83
2022/06/24 08:18:35;;;;;;;19.27;11.60;;;19.40;99.90;;;;;;6247471;23;20027;-83
2022/06/24 08:21:01;;;;;;;20.90;12.50;;;19.40;99.90;;;;;;6219637;23;20069;-83
2022/06/24 08:23:26;;;;;;;19.55;14.18;;;19.40;99.90;;;;;;6194169;23;20031;-83
2022/06/24 08:25:52;;;;;;;28.45;11.52;;;19.40;99.90;;;;;;6195254;23;20020;-82
2022/06/24 08:28:18;;;;;;;23.50;13.77;;;19.40;99.90;;;;;;6246941;23;20530;-82
2022/06/24 08:30:44;;;;;;;23.90;14.13;;;19.40;99.90;;;;;;6247023;23;20020;-82
2022/06/24 08:33:10;;;;;;;32.00;18.05;;;19.40;99.90;;;;;;6220199;23;20377;-82
2022/06/24 08:35:36;;;;;;;38.50;14.70;;;19.40;99.90;;;;;;6247470;23;20060;-83
2022/06/24 08:38:02;;;;;;;31.60;17.08;;;19.40;99.90;;;;;;6220599;23;20020;-82
2022/06/24 08:40:29;;;;;;;20.45;15.10;;;19.40;99.90;;;;;;6194614;23;20022;-82
2022/06/24 08:42:56;;;;;;;21.48;15.27;;;19.40;99.90;;;;;;6246871;23;20016;-82
2022/06/24 08:45:23;;;;;;;35.08;18.23;;;19.30;99.90;;;;;;6220158;23;20108;-82
2022/06/24 08:47:49;;;;;;;21.52;14.20;;;19.30;99.90;;;;;;6219947;23;20016;-82
2022/06/24 08:50:16;;;;;;;41.80;20.45;;;19.30;99.90;;;;;;6246835;23;20024;-82
2022/06/24 08:52:47;;;;;;;29.35;16.42;;;19.30;99.90;;;;;;6247254;23;20020;-82
2022/06/24 08:55:16;;;;;;;27.65;14.75;;;19.20;99.90;;;;;;6220396;23;20031;-82
2022/06/24 08:57:42;;;;;;;25.98;15.70;;;19.20;99.90;;;;;;6219994;23;20052;-82
2022/06/24 09:00:08;;;;;;;23.67;11.75;;;19.10;99.90;;;;;;6246723;23;20016;-82
2022/06/24 09:02:34;;;;;;;15.10;10.30;;;19.10;99.90;;;;;;6246606;23;20015;-84
2022/06/24 09:05:06;;;;;;;30.17;12.93;;;18.90;99.90;;;;;;6219787;23;20028;-82
2022/06/24 09:07:32;;;;;;;50.75;13.25;;;18.80;99.90;;;;;;6219846;23;20023;-82
2022/06/24 09:09:59;;;;;;;48.08;11.05;;;18.60;99.90;;;;;;6220048;23;20016;-83
2022/06/24 09:12:29;;;;;;;105.05;11.60;;;18.50;99.90;;;;;;6220373;23;20027;-84
2022/06/24 09:14:54;;;;;;;16.40;7.90;;;18.40;99.90;;;;;;6219609;23;20424;-82
2022/06/24 09:17:31;;;;;;;79.13;16.17;;;18.10;99.90;;;;;;6246077;23;20027;-81
2022/06/24 09:20:10;;;;;;;35.42;14.25;;;18.00;99.90;;;;;;6246521;23;20023;-81
2022/06/24 09:22:36;;;;;;;21.48;11.50;;;18.00;99.90;;;;;;6219797;23;20392;-81
2022/06/24 09:25:03;;;;;;;16.67;9.77;;;18.00;99.90;;;;;;6219167;23;20059;-81
2022/06/24 09:27:29;;;;;;;27.90;11.48;;;17.90;99.90;;;;;;6219327;23;20019;-81
2022/06/24 09:29:55;;;;;;;43.90;13.48;;;18.00;99.90;;;;;;6246511;23;20012;-80
2022/06/24 09:32:21;;;;;;;33.35;12.45;;;18.00;99.90;;;;;;6246369;23;20020;-83
2022/06/24 09:35:06;;;;;;;22.60;12.13;;;18.00;99.90;;;;;;6246406;23;20016;-81
2022/06/24 09:37:40;;;;;;;14.65;10.00;;;18.00;99.90;;;;;;6246022;23;20020;-83
2022/06/24 09:40:23;;;;;;;31.55;12.60;;;18.00;99.90;;;;;;6219611;23;20012;-82
2022/06/24 09:42:58;;;;;;;21.90;10.20;;;18.10;99.90;;;;;;6219457;23;20452;-79
2022/06/24 09:45:25;;;;;;;13.43;7.70;;;18.00;99.90;;;;;;6246241;23;20016;-79
2022/06/24 09:47:51;;;;;;;18.58;8.77;;;18.00;99.90;;;;;;6219506;23;20026;-79
2022/06/24 09:50:18;;;;;;;12.93;6.85;;;18.00;99.90;;;;;;6246100;23;20027;-80
2022/06/24 09:52:44;;;;;;;16.55;7.90;;;18.00;99.90;;;;;;6219465;23;20043;-80
2022/06/24 09:55:10;;;;;;;7.68;5.60;;;17.90;99.90;;;;;;6219561;23;20023;-81
2022/06/24 09:57:38;;;;;;;26.90;7.70;;;18.00;99.90;;;;;;6246169;23;20420;-80
2022/06/24 10:02:50;;;;;;;10.43;6.82;;;18.00;99.90;;;;;;6219212;23;20020;-79
2022/06/24 10:05:18;;;;;;;9.52;5.50;;;18.00;99.90;;;;;;6245850;23;20466;-80
2022/06/24 10:07:48;;;;;;;10.40;5.20;;;17.90;99.90;;;;;;6246295;23;20095;-80
2022/06/24 10:10:16;;;;;;;11.30;5.05;;;17.90;99.90;;;;;;6246186;23;20091;-80
2022/06/24 10:12:47;;;;;;;6.80;4.57;;;17.80;99.90;;;;;;6219441;23;20095;-81
2022/06/24 10:15:14;;;;;;;15.18;8.93;;;17.90;99.90;;;;;;6246032;23;20012;-81
2022/06/24 10:17:42;;;;;;;19.83;8.82;;;17.90;99.90;;;;;;6246165;23;20074;-81
2022/06/24 10:20:11;;;;;;;11.32;7.72;;;18.00;99.90;;;;;;6246225;23;20027;-81
2022/06/24 10:22:38;;;;;;;9.82;5.90;;;18.10;99.90;;;;;;6246031;23;20016;-82
2022/06/24 10:25:05;;;;;;;16.38;7.88;;;18.20;99.90;;;;;;6218964;23;20464;-85
2022/06/24 10:27:58;;;;;;;12.00;8.02;;;18.30;99.90;;;;;;6246012;23;20016;-82
2022/06/24 10:30:39;;;;;;;7.68;5.65;;;18.40;99.90;;;;;;6219316;23;20016;-82
2022/06/24 10:33:19;;;;;;;21.15;9.65;;;18.40;99.90;;;;;;6219457;23;20082;-82
2022/06/24 10:36:01;;;;;;;15.32;7.30;;;18.60;99.90;;;;;;6194218;23;20016;-82
2022/06/24 10:38:36;;;;;;;9.38;6.53;;;18.60;99.90;;;;;;6246264;23;20027;-82
2022/06/24 10:41:04;;;;;;;8.90;5.65;;;18.60;99.90;;;;;;6219296;23;20054;-83
2022/06/24 10:43:43;;;;;;;10.57;6.35;;;18.70;99.90;;;;;;6246066;23;20042;-82
2022/06/24 10:46:12;;;;;;;9.30;6.53;;;18.70;99.90;;;;;;6246292;23;20440;-82
2022/06/24 10:48:43;;;;;;;13.70;8.98;;;18.70;99.90;;;;;;6221380;23;20062;-82
2022/06/24 10:51:12;;;;;;;11.35;8.57;;;18.70;99.90;;;;;;6221312;23;20099;-82
2022/06/24 10:54:03;;;;;;;17.83;10.95;;;18.90;99.90;;;;;;6195757;23;20335;-82
2022/06/24 10:56:50;;;;;;;13.38;7.60;;;19.10;99.90;;;;;;6195952;23;20403;-82
2022/06/24 10:59:19;;;;;;;13.13;10.20;;;19.20;99.90;;;;;;6246407;23;20335;-82
2022/06/24 11:01:47;;;;;;;9.77;8.07;;;19.20;99.90;;;;;;6196172;23;20031;-82
2022/06/24 11:04:18;;;;;;;12.35;9.40;;;19.50;99.90;;;;;;6247754;23;20020;-82
2022/06/24 11:07:06;;;;;;;11.07;9.98;;;19.40;99.90;;;;;;6221820;23;20020;-82
2022/06/24 11:09:31;;;;;;;12.30;9.75;;;19.40;99.90;;;;;;6197006;23;20044;-82
2022/06/24 11:11:57;;;;;;;14.77;11.32;;;19.50;99.90;;;;;;6248334;23;20120;-85
2022/06/24 11:14:27;;;;;;;13.63;10.90;;;19.50;99.90;;;;;;6220941;23;20017;-83
2022/06/24 11:16:53;;;;;;;16.20;11.43;;;19.60;99.90;;;;;;6221188;23;20062;-83
2022/06/24 11:19:18;;;;;;;9.77;8.10;;;19.70;99.90;;;;;;6195556;23;20016;-82
2022/06/24 11:21:46;;;;;;;11.50;8.30;;;19.80;99.90;;;;;;6195843;23;20023;-83
2022/06/24 11:24:13;;;;;;;10.77;8.52;;;19.90;99.90;;;;;;6221472;23;20344;-82
2022/06/24 11:26:39;;;;;;;10.60;8.07;;;19.90;99.90;;;;;;6196010;23;20043;-81
2022/06/24 11:29:04;;;;;;;12.52;9.35;;;19.70;99.90;;;;;;6221414;23;20428;-82
2022/06/24 11:31:33;;;;;;;12.40;9.63;;;19.70;99.90;;;;;;6221319;23;20432;-81
2022/06/24 11:34:03;;;;;;;13.90;10.00;;;19.60;99.90;;;;;;6220910;23;20027;-82
2022/06/24 11:36:31;;;;;;;12.00;10.70;;;19.70;99.90;;;;;;6220863;23;20016;-81
2022/06/24 11:38:59;;;;;;;11.88;10.52;;;19.80;99.90;;;;;;6196887;23;20085;-82
2022/06/24 11:41:53;;;;;;;14.20;12.80;;;19.90;99.90;;;;;;6249699;23;20070;-82
2022/06/24 11:44:40;;;;;;;13.02;11.80;;;20.10;99.90;;;;;;6154707;23;20017;-82
2022/06/24 11:47:06;;;;;;;13.10;10.90;;;20.20;99.90;;;;;;6129752;23;20461;-82
2022/06/24 11:49:33;;;;;;;16.25;13.40;;;20.30;99.90;;;;;;6129683;23;20100;-81
2022/06/24 11:51:59;;;;;;;12.00;10.32;;;20.50;99.90;;;;;;6154566;23;20457;-82
2022/06/24 11:54:29;;;;;;;15.55;13.23;;;20.90;99.90;;;;;;6129809;23;20064;-81
2022/06/24 11:56:56;;;;;;;11.73;10.63;;;21.30;99.90;;;;;;6104988;23;20072;-85
2022/06/24 11:59:23;;;;;;;10.50;9.40;;;21.60;99.90;;;;;;6153874;23;20021;-82
2022/06/24 12:01:51;;;;;;;11.65;10.38;;;21.90;99.90;;;;;;6154237;23;20029;-82
2022/06/24 12:04:18;;;;;;;10.98;9.82;;;22.00;99.90;;;;;;6129431;23;20021;-82
2022/06/24 12:06:45;;;;;;;9.20;8.25;;;22.10;99.90;;;;;;6104727;23;20029;-82
2022/06/24 12:09:11;;;;;;;11.27;10.10;;;22.20;99.90;;;;;;6129808;23;20080;-82
2022/06/24 12:11:39;;;;;;;11.77;10.57;;;22.10;99.90;;;;;;6129826;23;20024;-82
2022/06/24 12:14:08;;;;;;;11.60;9.38;;;22.10;99.90;;;;;;6105051;23;20334;-83
2022/06/24 12:16:56;;;;;;;12.30;10.10;;;22.30;99.90;;;;;;6154177;23;20088;-82
2022/06/24 12:19:22;;;;;;;11.57;10.48;;;22.50;99.90;;;;;;6129507;23;20021;-83
2022/06/24 12:21:47;;;;;;;12.40;11.13;;;22.40;99.90;;;;;;6216122;23;20070;-83
2022/06/24 12:24:24;;;;;;;11.65;10.55;;;22.50;99.90;;;;;;6220400;23;20016;-83
2022/06/24 12:26:58;;;;;;;11.25;10.15;;;22.70;99.90;;;;;;6220182;23;20016;-83
2022/06/24 12:29:44;;;;;;;12.82;11.52;;;22.90;99.90;;;;;;6220193;23;20019;-83
2022/06/24 12:32:10;;;;;;;12.48;11.18;;;23.00;99.90;;;;;;6246277;23;20027;-83
2022/06/24 12:34:38;;;;;;;13.98;11.57;;;23.20;99.90;;;;;;6219764;23;20023;-83
2022/06/24 12:37:11;;;;;;;12.25;10.85;;;23.30;99.90;;;;;;6220461;23;20070;-84
2022/06/24 12:39:39;;;;;;;12.52;11.23;;;23.60;99.90;;;;;;6220962;23;20031;-84
2022/06/24 12:42:06;;;;;;;11.77;10.15;;;23.90;99.90;;;;;;6246855;23;20479;-84
2022/06/24 12:44:49;;;;;;;11.50;10.27;;;24.20;99.90;;;;;;6220528;23;20348;-83
2022/06/24 12:53:02;;;;;;;12.77;10.93;;;23.90;99.90;;;;;;6220175;23;20051;-84
2022/06/24 12:55:30;;;;;;;11.73;9.80;;;23.70;99.90;;;;;;6219944;23;20014;-84
2022/06/24 12:57:56;;;;;;;12.93;9.43;;;23.60;99.90;;;;;;6220106;23;20430;-84
2022/06/24 13:00:22;;;;;;;10.93;9.82;;;23.60;99.90;;;;;;6219772;23;20051;-84